Página principal
METAR-TAF:

METAR-TAF

Aeroportos :

Rarotonga, Ilhas Cook

latitude: 21-12S, longitude: 159-49W, altura: 7 m

Observação actual do tempo

O boletim foi feito há 50 minutos, às 15:00 UTC
Vento 14 kt de este
Temperatura 23°C
Humidade 73%
Pressão 1014 hPa
Visibilidade 10 km ou mais
Nuvens fragmentadasa uma altura de 1600 ft

METAR: NCRG 231500Z 08014KT 9999 BKN016 23/18 Q1014

Hora: 05:50 (15:50 UTC)

Previsão

O boletim foi feito há 4 horas e 40 minutos, às 11:10 UTC
Previsão válida de 23 às 12 UTC a 24 às 12 UTC
Vento 15 kt de este
Visibilidade 10 km ou mais
Nuvens dispersasa uma altura de 1600 ft
Temporariamente
de 23 às 12 UTC a 24 às 00 UTC
Vento 18 kt de este com rajadas de 28 kt

TAF: NCRG 231110Z 2312/2412 09015KT 9999 SCT016 TEMPO 2312/2400 09018G28KT

Observações e previsões do tempo de mais de 4000 aeroportos (mensagens METAR e TAF).

As estações disponíveis são os pontos amarelos e vermelhos sobre o mapa.

Mova o rato sobre o mapa para ver o nome da estação.

Depois clique no ponto para visualizar as observações e previsões meteorológicas.

Para alterar o mapa : clique nos botões verdes com uma cruz preta para aumentar o zoom; no botão verde com uma pitada de zoom; ou nas setas verdes para mapas adjacentes.


METAR-TAF: